Pagrindinis puslapis
METAR-TAF:

METAR-TAF

Oro uostai :

Prescott, Arizona, Jungtinės Amerikos Valstijos

platuma: 34-38-57N, ilguma: 112-25-20W, Aukštis: 1537 m

Dabartinis oras

Ataskaita buvo paskelbta 36 minutes, ne 13:53 UTC
Ramus vėjas
Temperatūra 9°C
Drėgmė 87%
Slėgis 1022 hPa
Matomumas: 16.1 km
Giedras dangus

METAR: KPRC 241353Z 00000KT 10SM CLR 09/07 A3019 RMK AO2 SLP166 T00940072

Laikas: 07:29 (14:29 UTC)

Prognozė

Ataskaita buvo paskelbta 3 valandos ir 7 minutes, ne 11:22 UTC
Prognozė galioja nuo 24 metu 12 UTC su 25 metu 12 UTC
Vėjas 5 kt nuo kintamojo kryptimis
Matomumas: 10 km
Giedras dangus

TAF: KPRC 241122Z 2412/2512 VRB05KT P6SM SKC

Orai ataskaitas ir orų prognozės (METAR, TAF).

turimą stotys yra geltonos ir raudonos taškus žemėlapyje.

Perkelti pele per norėdami pamatyti stoties vardą.

Tada spustelėkite, norėdami matyti oro stebėjimo ir prognozės.

Norėdami pakeisti žemėlapį: spustelėkite ant žalios mygtukų su juodo kryžiaus žemyn,; žalią mygtuką su brūkšneliu, jei norite nutolinti; arba žalių rodyklių gretimoms žemėlapius.


METAR-TAF: